Time;durP1;ratioP1;P1;durP2;ratioP2;P2;SDS_P1;SDS_P2;PMS_P1;PMS_P2;Temp;Humidity;BMP_temperature;BMP_pressure;BME280_temperature;BME280_humidity;BME280_pressure;Samples;Min_cycle;Max_cycle;Signal;HPM_P1;HPM_P2
2021/01/27 00:00:32;;;;;;;7.05;4.28;;;3.90;99.90;;;;;;5018698;28;20604;-78
2021/01/27 00:03:02;;;;;;;9.48;6.80;;;3.90;99.90;;;;;;5022331;28;20174;-79
2021/01/27 00:05:36;;;;;;;12.38;6.28;;;4.00;99.90;;;;;;5034561;28;20198;-79
2021/01/27 00:08:02;;;;;;;10.55;6.25;;;3.90;99.90;;;;;;5019073;28;20229;-79
2021/01/27 00:10:29;;;;;;;12.15;5.50;;;3.90;99.90;;;;;;5009527;28;20182;-79
2021/01/27 00:12:56;;;;;;;14.30;8.50;;;4.00;99.90;;;;;;5009090;28;20178;-79
2021/01/27 00:15:40;;;;;;;13.60;7.03;;;3.90;99.90;;;;;;5022654;28;20213;-79
2021/01/27 00:18:08;;;;;;;14.75;7.00;;;3.70;99.90;;;;;;5020016;28;20170;-79
2021/01/27 00:20:36;;;;;;;13.63;7.38;;;3.60;99.90;;;;;;5016441;28;20220;-78
2021/01/27 00:23:02;;;;;;;12.80;6.72;;;3.70;99.90;;;;;;5016470;28;20198;-78
2021/01/27 00:25:31;;;;;;;17.33;6.68;;;3.80;99.90;;;;;;5015781;28;20236;-79
2021/01/27 00:27:58;;;;;;;22.98;7.65;;;3.90;99.90;;;;;;5016182;28;20225;-79
2021/01/27 00:30:36;;;;;;;16.45;8.30;;;3.90;99.90;;;;;;5015541;28;20707;-79
2021/01/27 00:33:03;;;;;;;9.20;5.75;;;3.80;99.90;;;;;;5015372;28;20596;-79
2021/01/27 00:35:36;;;;;;;11.27;7.20;;;3.90;99.90;;;;;;5019432;28;20210;-79
2021/01/27 00:38:18;;;;;;;16.73;7.22;;;3.90;99.90;;;;;;5023493;28;20174;-79
2021/01/27 00:40:44;;;;;;;12.93;7.30;;;3.70;99.90;;;;;;5019822;28;20252;-79
2021/01/27 00:43:10;;;;;;;14.30;8.52;;;3.80;99.90;;;;;;5017563;28;20167;-79
2021/01/27 00:45:36;;;;;;;13.27;7.10;;;4.00;99.90;;;;;;5016458;28;20534;-79
2021/01/27 00:48:03;;;;;;;12.90;6.83;;;3.80;99.90;;;;;;5000178;28;20186;-79
2021/01/27 00:50:28;;;;;;;15.98;7.35;;;3.90;99.90;;;;;;5017117;28;20421;-79
2021/01/27 00:52:54;;;;;;;15.97;8.50;;;3.80;99.90;;;;;;5015969;28;20699;-79
2021/01/27 00:55:23;;;;;;;20.07;7.53;;;3.80;99.90;;;;;;5015562;28;20217;-79
2021/01/27 00:57:49;;;;;;;12.55;7.07;;;3.90;99.90;;;;;;5000746;28;20641;-79
2021/01/27 01:00:20;;;;;;;12.50;7.30;;;3.90;99.90;;;;;;5018541;28;20194;-78
2021/01/27 01:02:46;;;;;;;13.30;7.80;;;3.90;99.90;;;;;;5017334;28;20170;-78
2021/01/27 01:05:15;;;;;;;13.83;7.83;;;3.90;99.90;;;;;;5018623;28;20228;-78
2021/01/27 01:07:47;;;;;;;11.20;6.32;;;4.00;99.90;;;;;;5018261;28;20174;-78
2021/01/27 01:10:21;;;;;;;15.07;7.65;;;4.20;99.90;;;;;;5015649;28;20177;-78
2021/01/27 01:12:52;;;;;;;15.18;8.57;;;4.20;99.90;;;;;;5017969;28;20171;-78
2021/01/27 01:15:19;;;;;;;12.93;6.53;;;4.10;99.90;;;;;;5001019;28;22418;-78
2021/01/27 01:17:45;;;;;;;11.35;7.68;;;4.20;99.90;;;;;;5012780;28;20178;-77
2021/01/27 01:20:14;;;;;;;23.80;9.13;;;4.20;99.90;;;;;;5018099;28;20177;-78
2021/01/27 01:22:49;;;;;;;16.52;7.90;;;4.20;99.90;;;;;;5032608;28;20464;-78
2021/01/27 01:25:17;;;;;;;11.65;6.00;;;4.20;99.90;;;;;;5016917;28;20174;-78
2021/01/27 01:27:45;;;;;;;10.52;6.68;;;4.20;99.90;;;;;;5016576;28;20174;-77
2021/01/27 01:30:15;;;;;;;12.48;7.82;;;4.20;99.90;;;;;;5016072;28;20256;-78
2021/01/27 01:32:41;;;;;;;13.63;6.75;;;4.00;99.90;;;;;;5015672;28;20166;-78
2021/01/27 01:35:07;;;;;;;14.50;7.57;;;4.10;99.90;;;;;;5016443;28;20209;-78
2021/01/27 01:37:35;;;;;;;11.23;6.20;;;4.10;99.90;;;;;;5031378;28;20198;-78
2021/01/27 01:40:03;;;;;;;13.00;6.70;;;4.10;99.90;;;;;;5014453;28;20174;-78
2021/01/27 01:42:28;;;;;;;10.88;6.72;;;4.20;99.90;;;;;;5014602;28;20182;-78
2021/01/27 01:44:54;;;;;;;15.70;7.20;;;4.10;99.90;;;;;;5014763;28;20185;-78
2021/01/27 01:47:25;;;;;;;9.80;5.70;;;4.10;99.90;;;;;;5016796;28;20198;-78
2021/01/27 01:49:53;;;;;;;18.35;6.63;;;4.20;99.90;;;;;;5016686;28;20242;-78
2021/01/27 01:52:19;;;;;;;13.30;7.32;;;4.20;99.90;;;;;;5017496;28;20182;-78
2021/01/27 01:54:51;;;;;;;11.43;6.13;;;4.30;99.90;;;;;;5018006;28;20240;-77
2021/01/27 01:57:25;;;;;;;11.55;6.80;;;4.10;99.90;;;;;;5019278;28;20506;-80
2021/01/27 02:00:05;;;;;;;10.45;6.80;;;4.10;99.90;;;;;;5019021;28;20174;-78
2021/01/27 02:02:34;;;;;;;12.38;6.43;;;4.20;99.90;;;;;;4999026;28;20174;-79
2021/01/27 02:05:04;;;;;;;12.43;5.72;;;4.10;99.90;;;;;;5016208;28;20320;-79
2021/01/27 02:07:31;;;;;;;16.13;6.65;;;4.00;99.90;;;;;;5015495;28;20703;-79
2021/01/27 02:09:57;;;;;;;9.05;5.93;;;4.00;99.90;;;;;;5017374;28;20173;-79
2021/01/27 02:12:49;;;;;;;12.97;6.57;;;4.00;99.90;;;;;;5015488;28;20174;-79
2021/01/27 02:15:58;;;;;;;13.68;6.90;;;4.10;99.90;;;;;;4998384;28;20576;-79
2021/01/27 02:18:41;;;;;;;10.70;5.50;;;3.90;99.90;;;;;;5015491;28;20190;-79
2021/01/27 02:21:19;;;;;;;15.68;6.78;;;3.90;99.90;;;;;;5030222;28;20373;-78
2021/01/27 02:24:05;;;;;;;10.30;5.65;;;3.90;99.90;;;;;;5015970;28;20166;-78
2021/01/27 02:27:07;;;;;;;11.18;6.18;;;3.70;99.90;;;;;;5013786;28;20269;-78
2021/01/27 02:30:07;;;;;;;11.90;6.32;;;3.80;99.90;;;;;;5013856;28;20216;-78
2021/01/27 02:32:43;;;;;;;14.75;6.07;;;3.90;99.90;;;;;;5016877;28;20162;-79
2021/01/27 02:35:17;;;;;;;15.80;7.07;;;3.70;99.90;;;;;;5029868;28;20510;-78
2021/01/27 02:38:11;;;;;;;13.57;6.25;;;3.60;99.90;;;;;;5014269;28;20576;-78
2021/01/27 02:40:43;;;;;;;11.23;6.35;;;3.50;99.90;;;;;;5016190;28;20171;-78
2021/01/27 02:43:24;;;;;;;8.85;5.53;;;3.60;99.90;;;;;;5015378;28;20166;-78
2021/01/27 02:46:06;;;;;;;11.68;6.07;;;3.60;99.90;;;;;;5014286;28;20277;-77
2021/01/27 02:48:53;;;;;;;14.82;5.53;;;3.60;99.90;;;;;;5014254;28;20174;-79
2021/01/27 02:51:27;;;;;;;14.65;7.28;;;3.50;99.90;;;;;;5033737;28;20178;-78
2021/01/27 02:54:18;;;;;;;10.00;6.05;;;3.40;99.90;;;;;;5027782;28;20216;-79
2021/01/27 02:57:07;;;;;;;13.02;7.45;;;3.40;99.90;;;;;;5012079;28;20206;-78
2021/01/27 02:59:41;;;;;;;12.48;6.38;;;3.30;99.90;;;;;;5012920;28;20185;-77
2021/01/27 03:02:19;;;;;;;12.00;5.50;;;3.40;99.90;;;;;;5012367;28;20155;-77
2021/01/27 03:05:17;;;;;;;12.43;6.43;;;3.50;99.90;;;;;;5013031;28;20628;-77
2021/01/27 03:07:48;;;;;;;10.20;6.47;;;3.40;99.90;;;;;;4998936;28;20186;-78
2021/01/27 03:10:22;;;;;;;12.20;7.50;;;3.40;99.90;;;;;;5016564;28;20611;-78
2021/01/27 03:12:50;;;;;;;10.55;6.43;;;3.20;99.90;;;;;;5018433;28;20579;-79
2021/01/27 03:15:16;;;;;;;13.30;5.80;;;3.10;99.90;;;;;;5016562;28;20214;-78
2021/01/27 03:17:49;;;;;;;10.18;5.60;;;3.00;99.90;;;;;;5016100;28;20166;-78
2021/01/27 03:20:33;;;;;;;10.32;6.47;;;2.90;99.90;;;;;;5020848;28;20189;-79
2021/01/27 03:23:20;;;;;;;13.70;6.97;;;3.00;99.90;;;;;;5021787;28;20189;-79
2021/01/27 03:26:01;;;;;;;9.82;5.38;;;3.20;99.90;;;;;;5020248;28;20201;-78
2021/01/27 03:28:32;;;;;;;13.70;7.32;;;3.20;99.90;;;;;;5019071;28;20170;-78
2021/01/27 03:30:58;;;;;;;15.65;6.68;;;3.20;99.90;;;;;;5018066;28;20181;-78
2021/01/27 03:33:44;;;;;;;19.43;8.10;;;3.30;99.90;;;;;;5019329;28;20178;-79
2021/01/27 03:36:11;;;;;;;13.68;6.32;;;3.30;99.90;;;;;;5019583;28;20851;-78
2021/01/27 03:38:54;;;;;;;14.43;8.05;;;3.30;99.90;;;;;;5023661;28;20539;-78
2021/01/27 03:41:31;;;;;;;15.27;6.75;;;3.30;99.90;;;;;;5019862;28;20166;-78
2021/01/27 03:44:20;;;;;;;14.98;5.80;;;3.20;99.90;;;;;;5018319;28;20712;-78
2021/01/27 03:47:06;;;;;;;14.45;7.90;;;3.20;99.90;;;;;;5016963;28;20722;-78
2021/01/27 03:49:32;;;;;;;17.52;7.80;;;3.20;99.90;;;;;;5018179;28;20205;-78
2021/01/27 03:52:20;;;;;;;10.00;5.70;;;3.10;99.90;;;;;;5016981;28;20224;-78
2021/01/27 03:55:29;;;;;;;15.13;6.88;;;3.20;99.90;;;;;;5013194;28;20229;-78
2021/01/27 03:58:11;;;;;;;11.80;6.55;;;3.20;99.90;;;;;;4973406;28;20226;-78
2021/01/27 04:00:38;;;;;;;17.05;6.93;;;3.20;99.90;;;;;;5011133;28;20186;-78
2021/01/27 04:03:19;;;;;;;12.70;6.72;;;3.20;99.90;;;;;;5016033;28;20170;-79
2021/01/27 04:05:45;;;;;;;10.50;6.10;;;3.20;99.90;;;;;;5016079;28;20691;-78
2021/01/27 04:08:15;;;;;;;11.23;7.18;;;3.20;99.90;;;;;;5015059;28;20217;-79
2021/01/27 04:10:41;;;;;;;13.00;7.63;;;3.20;99.90;;;;;;5015956;28;20506;-79
2021/01/27 04:13:07;;;;;;;18.93;8.17;;;3.20;99.90;;;;;;5016003;28;20174;-78
2021/01/27 04:15:34;;;;;;;14.32;7.68;;;3.20;99.90;;;;;;5016660;28;20564;-78
2021/01/27 04:18:00;;;;;;;11.95;7.10;;;3.20;99.90;;;;;;5020979;28;20253;-79
2021/01/27 04:20:26;;;;;;;18.20;8.70;;;3.30;99.90;;;;;;5018379;28;20184;-79
2021/01/27 04:22:53;;;;;;;14.43;7.10;;;3.20;99.90;;;;;;5018618;28;20734;-78
2021/01/27 04:25:18;;;;;;;15.30;7.55;;;3.30;99.90;;;;;;5018143;28;20312;-78
2021/01/27 04:27:45;;;;;;;18.10;8.23;;;3.30;99.90;;;;;;5017119;28;20174;-78
2021/01/27 04:30:14;;;;;;;12.32;7.50;;;3.30;99.90;;;;;;5017535;28;20178;-78
2021/01/27 04:32:39;;;;;;;21.80;8.82;;;3.30;99.90;;;;;;5024942;28;20197;-79
2021/01/27 04:35:06;;;;;;;14.33;6.80;;;3.20;99.90;;;;;;5032679;28;20237;-79
2021/01/27 04:37:32;;;;;;;14.40;8.05;;;3.20;99.90;;;;;;5033220;28;20213;-79
2021/01/27 04:39:57;;;;;;;13.00;7.40;;;3.10;99.90;;;;;;5032624;28;20178;-79
2021/01/27 04:42:28;;;;;;;22.20;9.80;;;3.10;99.90;;;;;;5031583;28;20186;-78
2021/01/27 04:44:58;;;;;;;16.85;9.18;;;3.10;99.90;;;;;;5016920;28;20178;-78
2021/01/27 04:47:36;;;;;;;18.77;9.52;;;3.20;99.90;;;;;;5016382;28;20182;-79
2021/01/27 04:50:06;;;;;;;17.55;8.15;;;3.20;99.90;;;;;;5019120;28;20216;-78
2021/01/27 04:52:51;;;;;;;21.50;9.30;;;3.20;99.90;;;;;;5019776;28;20189;-79
2021/01/27 04:55:29;;;;;;;23.65;10.52;;;3.20;99.90;;;;;;5020155;28;20198;-79
2021/01/27 04:58:11;;;;;;;15.75;7.85;;;3.20;99.90;;;;;;5017796;28;20185;-78
2021/01/27 05:01:00;;;;;;;15.18;7.32;;;3.20;99.90;;;;;;5035334;28;20518;-80
2021/01/27 05:04:07;;;;;;;16.98;7.90;;;3.30;99.90;;;;;;5017847;28;20213;-78
2021/01/27 05:06:41;;;;;;;17.20;8.25;;;3.40;99.90;;;;;;5019154;28;20201;-79
2021/01/27 05:09:35;;;;;;;18.27;9.13;;;3.40;99.90;;;;;;5001270;28;20182;-79
2021/01/27 05:12:04;;;;;;;18.60;9.45;;;3.40;99.90;;;;;;5016164;28;20186;-79
2021/01/27 05:14:30;;;;;;;22.20;9.95;;;3.40;99.90;;;;;;5020687;28;20280;-79
2021/01/27 05:16:58;;;;;;;20.02;8.90;;;3.50;99.90;;;;;;5023488;28;20240;-80
2021/01/27 05:19:24;;;;;;;19.30;10.80;;;3.30;99.90;;;;;;5019524;28;20180;-79
2021/01/27 05:21:53;;;;;;;15.83;7.77;;;3.30;99.90;;;;;;5015106;28;20175;-79
2021/01/27 05:24:19;;;;;;;24.45;11.63;;;3.40;99.90;;;;;;5016031;28;20637;-78
2021/01/27 05:26:56;;;;;;;19.63;10.50;;;3.40;99.90;;;;;;5015606;28;20208;-79
2021/01/27 05:29:25;;;;;;;20.77;10.75;;;3.50;99.90;;;;;;5015337;28;20840;-79
2021/01/27 05:32:14;;;;;;;15.73;8.90;;;3.50;99.90;;;;;;5014641;28;20546;-79
2021/01/27 05:34:48;;;;;;;22.90;12.80;;;3.60;99.90;;;;;;5016034;28;20358;-79
2021/01/27 05:37:34;;;;;;;17.77;10.70;;;3.60;99.90;;;;;;5015266;28;20688;-79
2021/01/27 05:40:16;;;;;;;20.98;12.13;;;3.60;99.90;;;;;;5016994;28;20230;-79
2021/01/27 05:42:43;;;;;;;20.20;10.95;;;3.60;99.90;;;;;;5018037;28;20172;-79
2021/01/27 05:45:30;;;;;;;19.95;9.88;;;3.60;99.90;;;;;;5015973;28;20174;-80
2021/01/27 05:48:10;;;;;;;17.70;9.98;;;3.70;99.90;;;;;;5017541;28;20181;-79
2021/01/27 05:50:37;;;;;;;23.85;11.55;;;3.60;99.90;;;;;;5017344;28;20249;-80
2021/01/27 05:53:21;;;;;;;26.23;10.80;;;3.60;99.90;;;;;;5017922;28;20174;-79
2021/01/27 05:56:17;;;;;;;21.75;10.90;;;3.60;99.90;;;;;;5016459;28;20210;-80
2021/01/27 05:59:01;;;;;;;22.15;11.18;;;3.60;99.90;;;;;;5015042;28;20204;-81
2021/01/27 06:01:31;;;;;;;25.70;11.82;;;3.60;99.90;;;;;;5017265;28;20173;-79
2021/01/27 06:04:00;;;;;;;27.75;13.77;;;3.60;99.90;;;;;;5017055;28;20170;-80
2021/01/27 06:06:28;;;;;;;26.88;11.32;;;3.60;99.90;;;;;;4999987;28;20228;-79
2021/01/27 06:08:57;;;;;;;21.83;11.98;;;3.70;99.90;;;;;;4999285;28;20178;-79
2021/01/27 06:11:23;;;;;;;24.50;13.95;;;3.70;99.90;;;;;;5015420;28;20237;-79
2021/01/27 06:13:51;;;;;;;19.15;10.52;;;3.70;99.90;;;;;;5016599;28;20204;-79
2021/01/27 06:16:33;;;;;;;23.67;12.13;;;3.70;99.90;;;;;;5013732;28;20225;-79
2021/01/27 06:19:17;;;;;;;38.05;13.05;;;3.60;99.90;;;;;;5013639;28;20649;-79
2021/01/27 06:21:55;;;;;;;27.20;14.48;;;3.50;99.90;;;;;;5002348;28;20178;-80
2021/01/27 06:24:33;;;;;;;24.05;12.20;;;3.50;99.90;;;;;;4994780;28;20235;-78
2021/01/27 06:27:01;;;;;;;20.90;12.18;;;3.60;99.90;;;;;;4994597;28;20190;-78
2021/01/27 06:29:48;;;;;;;27.98;11.43;;;3.60;99.90;;;;;;4996999;28;20178;-80
2021/01/27 06:32:44;;;;;;;31.00;13.18;;;3.70;99.90;;;;;;4996146;28;20185;-81
2021/01/27 06:35:32;;;;;;;24.88;13.57;;;3.80;99.90;;;;;;5025915;28;20214;-81
2021/01/27 06:38:25;;;;;;;24.02;13.52;;;3.90;99.90;;;;;;4993649;28;20390;-80
2021/01/27 06:41:04;;;;;;;26.85;11.48;;;3.80;99.90;;;;;;5003236;28;20170;-81
2021/01/27 06:43:41;;;;;;;28.88;12.48;;;3.90;99.90;;;;;;5026328;28;20174;-81
2021/01/27 06:46:27;;;;;;;28.25;11.60;;;4.10;99.90;;;;;;5017172;28;20197;-81
2021/01/27 06:49:12;;;;;;;26.77;13.23;;;4.10;99.90;;;;;;5016087;28;20181;-81
2021/01/27 06:51:53;;;;;;;19.40;12.02;;;4.10;99.90;;;;;;5017628;28;20498;-79
2021/01/27 06:54:40;;;;;;;25.05;13.40;;;4.10;99.90;;;;;;5017495;28;20221;-78
2021/01/27 06:57:36;;;;;;;20.63;11.95;;;4.00;99.90;;;;;;5019093;28;20198;-81
2021/01/27 07:00:31;;;;;;;26.75;12.02;;;3.90;99.90;;;;;;5024704;28;20276;-81
2021/01/27 07:03:26;;;;;;;22.63;13.15;;;3.90;99.90;;;;;;5023352;28;20178;-81
2021/01/27 07:05:52;;;;;;;22.85;12.00;;;3.70;99.90;;;;;;5022022;28;20560;-81
2021/01/27 07:08:44;;;;;;;24.90;11.63;;;3.70;99.90;;;;;;5021724;28;20269;-81
2021/01/27 07:11:24;;;;;;;17.83;10.98;;;3.80;99.90;;;;;;5015114;28;20216;-80
2021/01/27 07:14:25;;;;;;;26.20;13.90;;;3.80;99.90;;;;;;5021226;28;20180;-81
2021/01/27 07:17:21;;;;;;;18.45;10.25;;;3.80;99.90;;;;;;5018731;28;20237;-81
2021/01/27 07:20:12;;;;;;;26.13;11.23;;;3.70;99.90;;;;;;4997146;28;20169;-80
2021/01/27 07:22:44;;;;;;;38.22;15.63;;;3.70;99.90;;;;;;4997700;28;20167;-81
2021/01/27 07:25:16;;;;;;;20.08;10.70;;;3.80;99.90;;;;;;5017615;28;20652;-80
2021/01/27 07:28:27;;;;;;;22.45;10.40;;;3.70;99.90;;;;;;5023502;28;20180;-80
2021/01/27 07:31:01;;;;;;;23.38;11.25;;;3.70;99.90;;;;;;5011215;28;20193;-81
2021/01/27 07:33:41;;;;;;;32.70;14.02;;;3.90;99.90;;;;;;5023667;28;20636;-81
2021/01/27 07:36:41;;;;;;;23.33;11.25;;;3.90;99.90;;;;;;5018242;28;20575;-80
2021/01/27 07:39:30;;;;;;;25.17;12.73;;;3.90;99.90;;;;;;5020845;28;20585;-82
2021/01/27 07:42:27;;;;;;;18.90;11.23;;;3.90;99.90;;;;;;5007170;28;20653;-80
2021/01/27 07:44:58;;;;;;;26.83;12.43;;;4.00;99.90;;;;;;5024672;28;20197;-81
2021/01/27 07:47:59;;;;;;;18.98;12.30;;;4.00;99.90;;;;;;5025078;28;20190;-81
2021/01/27 07:50:27;;;;;;;21.00;11.38;;;4.00;99.90;;;;;;5025758;28;20570;-80
2021/01/27 07:53:17;;;;;;;27.83;11.57;;;4.00;99.90;;;;;;5022864;28;20186;-80
2021/01/27 07:56:08;;;;;;;25.25;11.13;;;4.10;99.90;;;;;;5024672;28;20285;-80
2021/01/27 07:58:43;;;;;;;25.02;13.25;;;4.00;99.90;;;;;;5010004;28;20190;-80
2021/01/27 08:01:24;;;;;;;22.85;12.85;;;3.90;99.90;;;;;;5012165;28;20190;-79
2021/01/27 08:04:13;;;;;;;25.50;13.88;;;3.90;99.90;;;;;;5015553;28;20583;-81
2021/01/27 08:06:49;;;;;;;27.60;12.05;;;3.90;99.90;;;;;;5022803;28;20198;-81
2021/01/27 08:09:43;;;;;;;22.95;12.50;;;4.00;99.90;;;;;;5009652;28;20188;-82
2021/01/27 08:12:27;;;;;;;20.25;11.25;;;4.20;99.90;;;;;;5011710;28;20187;-83
2021/01/27 08:15:13;;;;;;;20.40;10.43;;;4.10;99.90;;;;;;5007355;28;20202;-81
2021/01/27 08:17:47;;;;;;;22.02;10.60;;;4.10;99.90;;;;;;5024910;28;20209;-80
2021/01/27 08:20:20;;;;;;;24.73;12.48;;;4.20;99.90;;;;;;5024113;28;20233;-81
2021/01/27 08:23:20;;;;;;;18.67;12.20;;;4.20;99.90;;;;;;5026358;28;20186;-81
2021/01/27 08:25:49;;;;;;;20.00;10.63;;;4.30;99.90;;;;;;5011477;28;20269;-81
2021/01/27 08:28:24;;;;;;;15.65;9.63;;;4.20;99.90;;;;;;5026255;28;20186;-81
2021/01/27 08:31:13;;;;;;;24.67;10.57;;;4.20;99.90;;;;;;5025179;28;20174;-80
2021/01/27 08:33:47;;;;;;;19.70;9.90;;;4.10;99.90;;;;;;5021620;28;20182;-80
2021/01/27 08:36:24;;;;;;;22.23;9.65;;;4.20;99.90;;;;;;5026008;28;20200;-80
2021/01/27 08:38:55;;;;;;;24.20;11.00;;;4.10;99.90;;;;;;5006694;28;20604;-80
2021/01/27 08:42:01;;;;;;;20.40;11.10;;;4.10;99.90;;;;;;5013032;28;20197;-81
2021/01/27 08:44:38;;;;;;;21.67;11.05;;;4.10;99.90;;;;;;5006782;28;20346;-80
2021/01/27 08:47:16;;;;;;;23.40;12.48;;;4.10;99.90;;;;;;5016691;28;20194;-81
2021/01/27 08:49:57;;;;;;;24.40;10.80;;;4.10;99.90;;;;;;5021818;28;20165;-81
2021/01/27 08:52:34;;;;;;;24.77;10.65;;;4.10;99.90;;;;;;5020045;28;20193;-81
2021/01/27 08:55:00;;;;;;;21.35;10.80;;;4.20;99.90;;;;;;5024559;28;20260;-81
2021/01/27 08:57:33;;;;;;;20.77;11.82;;;4.20;99.90;;;;;;5025360;28;20700;-81
2021/01/27 09:00:18;;;;;;;23.92;11.05;;;4.20;99.90;;;;;;5010212;28;20174;-81
2021/01/27 09:03:02;;;;;;;20.50;11.30;;;4.20;99.90;;;;;;5027048;28;20237;-81
2021/01/27 09:05:28;;;;;;;24.85;11.25;;;4.20;99.90;;;;;;5025653;28;20833;-80
2021/01/27 09:08:01;;;;;;;21.30;10.50;;;4.30;99.90;;;;;;5025264;28;20685;-81
2021/01/27 09:10:34;;;;;;;29.05;11.82;;;4.50;99.90;;;;;;5026073;28;20178;-82
2021/01/27 09:13:31;;;;;;;25.88;11.98;;;4.90;99.90;;;;;;5026529;28;20177;-81
2021/01/27 09:16:19;;;;;;;24.05;11.43;;;5.10;99.90;;;;;;5024692;28;20205;-81
2021/01/27 09:18:53;;;;;;;20.98;10.95;;;5.10;99.90;;;;;;5023933;28;20197;-81
2021/01/27 09:21:21;;;;;;;23.17;11.13;;;5.20;99.90;;;;;;5024553;28;20174;-82
2021/01/27 09:23:57;;;;;;;19.08;11.68;;;4.90;99.90;;;;;;5023609;28;20178;-81
2021/01/27 09:26:44;;;;;;;26.20;13.73;;;4.70;99.90;;;;;;5023154;28;20530;-81
2021/01/27 09:29:36;;;;;;;25.48;12.85;;;4.60;99.90;;;;;;5021200;28;20280;-82
2021/01/27 09:32:14;;;;;;;25.10;12.68;;;4.50;99.90;;;;;;5022180;28;20201;-82
2021/01/27 09:34:40;;;;;;;24.90;12.15;;;4.40;99.90;;;;;;5019679;28;20219;-83
2021/01/27 09:37:26;;;;;;;28.57;12.93;;;4.40;99.90;;;;;;5018541;28;20237;-82
2021/01/27 09:40:29;;;;;;;26.77;12.07;;;4.40;99.90;;;;;;5020091;28;20887;-82
2021/01/27 09:42:57;;;;;;;22.40;11.15;;;4.30;99.90;;;;;;5023515;28;20185;-81
2021/01/27 09:45:30;;;;;;;23.08;11.85;;;4.40;99.90;;;;;;5025780;28;20198;-81
2021/01/27 09:47:57;;;;;;;20.63;11.65;;;4.30;99.90;;;;;;5025508;28;20529;-82
2021/01/27 09:50:23;;;;;;;24.83;11.43;;;4.50;99.90;;;;;;5025680;28;20178;-82
2021/01/27 09:52:56;;;;;;;22.42;10.55;;;4.60;99.90;;;;;;5028106;28;20169;-82
2021/01/27 09:55:23;;;;;;;28.40;13.40;;;4.70;99.90;;;;;;5025900;28;20206;-82
2021/01/27 09:57:51;;;;;;;18.67;10.68;;;4.70;99.90;;;;;;5009764;28;20267;-81
2021/01/27 10:00:38;;;;;;;18.98;9.75;;;4.80;99.90;;;;;;5026153;28;20170;-81
2021/01/27 10:03:27;;;;;;;23.17;10.75;;;4.80;99.90;;;;;;5025917;28;20200;-81
2021/01/27 10:05:53;;;;;;;18.98;11.35;;;4.90;99.90;;;;;;5025657;28;20196;-82
2021/01/27 10:08:32;;;;;;;20.85;10.35;;;5.00;99.90;;;;;;5025770;28;20182;-82
2021/01/27 10:11:20;;;;;;;21.02;11.90;;;5.00;99.90;;;;;;5023495;28;20250;-82
2021/01/27 10:13:46;;;;;;;24.95;11.55;;;5.00;99.90;;;;;;5022796;28;20707;-82
2021/01/27 10:16:13;;;;;;;20.30;11.20;;;4.90;99.90;;;;;;5026989;28;20265;-82
2021/01/27 10:18:44;;;;;;;22.67;12.55;;;4.90;99.90;;;;;;5010615;28;20775;-82
2021/01/27 10:21:14;;;;;;;22.70;10.32;;;4.90;99.90;;;;;;5027970;28;20181;-82
2021/01/27 10:23:45;;;;;;;21.52;11.63;;;4.90;99.90;;;;;;5028688;28;20625;-81
2021/01/27 10:26:29;;;;;;;19.50;10.98;;;4.90;99.90;;;;;;5028806;28;20261;-81
2021/01/27 10:29:17;;;;;;;16.10;8.68;;;5.00;99.90;;;;;;5025944;28;20269;-82
2021/01/27 10:31:49;;;;;;;32.15;12.55;;;5.00;99.90;;;;;;5027830;28;20168;-82
2021/01/27 10:34:41;;;;;;;20.05;10.65;;;5.00;99.90;;;;;;5031103;28;20214;-82
2021/01/27 10:37:33;;;;;;;19.98;9.57;;;5.00;99.90;;;;;;5029811;28;20292;-82
2021/01/27 10:40:20;;;;;;;21.67;11.82;;;5.10;99.90;;;;;;5031879;28;20169;-82
2021/01/27 10:43:21;;;;;;;17.48;9.95;;;5.20;99.90;;;;;;5029845;28;20170;-83
2021/01/27 10:45:47;;;;;;;21.08;11.27;;;5.20;99.90;;;;;;5029031;28;20292;-82
2021/01/27 10:48:16;;;;;;;21.30;10.63;;;5.30;99.90;;;;;;5030789;28;20245;-82
2021/01/27 10:50:55;;;;;;;20.83;10.88;;;5.40;99.90;;;;;;5029616;28;20174;-82
2021/01/27 10:53:20;;;;;;;19.80;10.43;;;5.40;99.90;;;;;;5030743;28;20176;-82
2021/01/27 10:55:53;;;;;;;22.00;12.20;;;5.40;99.90;;;;;;5028106;28;20205;-81
2021/01/27 10:58:19;;;;;;;22.40;10.55;;;5.40;99.90;;;;;;5026273;28;20766;-81
2021/01/27 11:00:45;;;;;;;17.23;9.15;;;5.50;99.90;;;;;;5009909;28;20178;-82
2021/01/27 11:03:13;;;;;;;18.60;10.15;;;5.50;99.90;;;;;;5024290;28;20166;-81
2021/01/27 11:05:39;;;;;;;21.92;10.63;;;5.50;99.90;;;;;;5023771;28;20198;-81
2021/01/27 11:08:32;;;;;;;20.00;10.85;;;5.50;99.90;;;;;;5005149;28;20193;-80
2021/01/27 11:10:59;;;;;;;22.33;10.85;;;5.60;99.90;;;;;;5021920;28;20249;-81
2021/01/27 11:13:25;;;;;;;19.23;9.80;;;5.70;99.90;;;;;;5021561;28;20174;-81
2021/01/27 11:15:51;;;;;;;17.75;10.15;;;5.50;99.90;;;;;;5003754;28;20300;-81
2021/01/27 11:18:19;;;;;;;17.45;10.07;;;5.20;99.90;;;;;;5017840;28;20170;-81
2021/01/27 11:20:50;;;;;;;14.85;8.85;;;5.40;99.90;;;;;;5018779;28;20189;-80
2021/01/27 11:23:16;;;;;;;20.13;10.90;;;5.60;99.90;;;;;;5019324;28;20197;-81
2021/01/27 11:25:41;;;;;;;12.27;8.33;;;5.40;99.90;;;;;;5022491;28;20202;-82
2021/01/27 11:28:07;;;;;;;17.37;10.43;;;5.10;99.90;;;;;;5020570;28;20182;-80
2021/01/27 11:30:33;;;;;;;18.10;10.67;;;5.10;99.90;;;;;;5020054;28;20182;-81
2021/01/27 11:32:59;;;;;;;18.97;10.43;;;5.00;99.90;;;;;;5019817;28;20425;-80
2021/01/27 11:35:26;;;;;;;19.15;10.05;;;5.10;99.90;;;;;;5029901;28;20226;-81
2021/01/27 11:37:52;;;;;;;20.20;10.73;;;5.20;99.90;;;;;;5034433;28;20170;-82
2021/01/27 11:40:25;;;;;;;23.10;12.38;;;5.30;99.90;;;;;;5036476;28;20326;-81
2021/01/27 11:42:50;;;;;;;28.73;12.85;;;5.40;99.90;;;;;;5015442;28;20183;-82
2021/01/27 11:45:21;;;;;;;15.27;8.73;;;5.50;99.90;;;;;;5013887;28;20213;-80
2021/01/27 11:47:46;;;;;;;15.05;7.82;;;5.70;99.90;;;;;;5007929;28;20175;-82
2021/01/27 11:50:15;;;;;;;23.57;10.20;;;5.70;99.90;;;;;;5007284;28;20228;-80
2021/01/27 11:52:41;;;;;;;20.15;10.07;;;5.70;99.90;;;;;;5020331;28;20182;-81
2021/01/27 11:55:07;;;;;;;13.20;8.60;;;5.80;99.90;;;;;;5019717;28;20264;-80
2021/01/27 11:57:33;;;;;;;12.52;9.10;;;5.90;99.90;;;;;;5005634;28;20171;-81
2021/01/27 12:00:05;;;;;;;17.25;10.43;;;5.90;99.90;;;;;;5011393;28;20178;-81
2021/01/27 12:02:30;;;;;;;17.70;9.88;;;6.00;99.90;;;;;;5020900;28;20166;-81
2021/01/27 12:04:56;;;;;;;15.27;8.43;;;6.20;99.90;;;;;;5019754;28;20197;-79
2021/01/27 12:07:22;;;;;;;13.77;8.27;;;6.30;99.90;;;;;;5016530;28;20224;-81
2021/01/27 12:09:50;;;;;;;14.97;8.57;;;6.50;99.90;;;;;;5009946;28;20189;-80
2021/01/27 12:12:15;;;;;;;23.15;11.15;;;6.50;99.90;;;;;;5022833;28;20174;-81
2021/01/27 12:14:41;;;;;;;16.40;10.17;;;6.60;99.90;;;;;;5005754;28;20213;-80
2021/01/27 12:17:09;;;;;;;19.47;10.13;;;6.60;99.90;;;;;;5003867;28;20203;-79
2021/01/27 12:19:34;;;;;;;14.23;9.10;;;6.60;99.90;;;;;;5002820;28;20183;-80
2021/01/27 12:22:00;;;;;;;14.23;9.43;;;6.60;99.90;;;;;;4988140;28;20428;-81
2021/01/27 12:24:27;;;;;;;18.20;9.20;;;6.60;99.90;;;;;;4991675;28;20189;-82
2021/01/27 12:26:52;;;;;;;14.55;7.93;;;6.50;99.90;;;;;;5025504;28;20190;-80
2021/01/27 12:29:26;;;;;;;14.03;7.10;;;6.40;99.90;;;;;;5021284;28;20252;-80
2021/01/27 12:31:52;;;;;;;17.33;8.25;;;6.30;99.90;;;;;;5006333;28;20641;-81
2021/01/27 12:34:19;;;;;;;18.00;8.70;;;6.30;99.90;;;;;;5013651;28;20190;-80
2021/01/27 12:36:46;;;;;;;12.23;7.65;;;6.30;99.90;;;;;;5009142;28;20425;-80
2021/01/27 12:39:12;;;;;;;13.15;7.72;;;6.40;99.90;;;;;;5023389;28;20174;-80
2021/01/27 12:41:37;;;;;;;12.27;7.93;;;6.40;99.90;;;;;;5007301;28;20171;-79
2021/01/27 12:44:03;;;;;;;18.73;9.30;;;6.40;99.90;;;;;;5020302;28;20181;-80
2021/01/27 12:46:29;;;;;;;16.60;8.87;;;6.40;99.90;;;;;;5016545;28;20444;-81
2021/01/27 12:48:55;;;;;;;13.43;7.00;;;6.40;99.90;;;;;;5018027;28;20563;-80
2021/01/27 12:51:23;;;;;;;16.57;8.73;;;6.40;99.90;;;;;;5019067;28;20166;-80
2021/01/27 12:53:49;;;;;;;14.93;8.40;;;6.30;99.90;;;;;;5002139;28;20204;-82
2021/01/27 12:56:15;;;;;;;13.13;7.57;;;6.40;99.90;;;;;;5018067;28;20305;-82
2021/01/27 12:58:41;;;;;;;13.48;8.55;;;6.30;99.90;;;;;;5020327;28;20549;-81
2021/01/27 13:01:07;;;;;;;17.80;8.00;;;6.30;99.90;;;;;;5023829;28;20254;-82
2021/01/27 13:03:33;;;;;;;15.40;8.10;;;6.50;99.90;;;;;;5026156;28;20178;-82
2021/01/27 13:05:58;;;;;;;16.53;8.90;;;6.60;99.90;;;;;;5017928;28;20464;-82
2021/01/27 13:08:24;;;;;;;13.17;7.73;;;6.70;99.90;;;;;;5009835;28;20426;-80
2021/01/27 13:10:49;;;;;;;12.17;7.13;;;6.70;99.90;;;;;;5014815;28;20193;-79
2021/01/27 13:13:16;;;;;;;17.20;6.53;;;6.70;99.90;;;;;;5016583;28;20185;-80
2021/01/27 13:15:41;;;;;;;11.23;6.47;;;6.70;99.90;;;;;;4997584;28;20210;-80
2021/01/27 13:18:08;;;;;;;11.37;8.37;;;6.70;99.90;;;;;;5005184;28;20170;-79
2021/01/27 13:20:34;;;;;;;11.27;6.80;;;6.80;99.90;;;;;;5015424;28;20197;-81
2021/01/27 13:23:00;;;;;;;13.10;6.53;;;6.80;99.90;;;;;;5015664;28;20178;-80